createdAt,value
2016-12-26T00:00:40.311Z,23.25
2016-12-26T00:01:20.898Z,23.28
2016-12-26T00:02:01.479Z,23.27
2016-12-26T00:02:42.066Z,23.25
2016-12-26T00:03:22.654Z,23.17
2016-12-26T00:04:03.246Z,23.19
2016-12-26T00:04:43.818Z,23.28
2016-12-26T00:05:24.413Z,23.2
2016-12-26T00:06:05.001Z,23.17
2016-12-26T00:06:45.588Z,23.17
2016-12-26T00:07:26.160Z,23.25
2016-12-26T00:08:06.745Z,23.25
2016-12-26T00:08:47.311Z,23.22
2016-12-26T00:09:27.898Z,23.25
2016-12-26T00:10:08.488Z,23.23
2016-12-26T00:10:49.080Z,23.17
2016-12-26T00:11:29.681Z,23.28
2016-12-26T00:12:10.270Z,23.23
2016-12-26T00:12:50.861Z,23.25
2016-12-26T00:13:31.456Z,23.32
2016-12-26T00:14:12.053Z,23.22
2016-12-26T00:14:52.628Z,23.25
2016-12-26T00:15:33.213Z,23.19
2016-12-26T00:16:13.801Z,23.2
2016-12-26T00:16:54.372Z,23.31
2016-12-26T00:17:34.958Z,23.2
2016-12-26T00:18:15.548Z,23.27
2016-12-26T00:18:56.129Z,23.27
2016-12-26T00:19:36.722Z,23.17
2016-12-26T00:20:17.308Z,23.25
2016-12-26T00:20:57.905Z,23.23
2016-12-26T00:21:38.489Z,23.22
2016-12-26T00:22:19.061Z,23.23
2016-12-26T00:22:59.644Z,23.31
2016-12-26T00:23:40.222Z,23.2
2016-12-26T00:24:20.807Z,23.17
2016-12-26T00:25:01.397Z,23.27
2016-12-26T00:25:41.982Z,23.23
2016-12-26T00:26:22.566Z,23.25
2016-12-26T00:27:03.152Z,23.33
2016-12-26T00:27:43.734Z,23.22
2016-12-26T00:28:24.319Z,23.2
2016-12-26T00:29:04.912Z,23.25
2016-12-26T00:29:45.491Z,23.19
2016-12-26T00:30:26.073Z,23.28
2016-12-26T00:31:06.674Z,23.23
2016-12-26T00:31:47.251Z,23.19
2016-12-26T00:32:27.828Z,23.19
2016-12-26T00:33:08.427Z,23.16
2016-12-26T00:33:49.013Z,23.23
2016-12-26T00:34:29.615Z,23.28
2016-12-26T00:35:10.216Z,23.2
2016-12-26T00:35:50.797Z,23.22
2016-12-26T00:36:31.392Z,23.23
2016-12-26T00:37:11.983Z,23.2
2016-12-26T00:37:52.595Z,23.2
2016-12-26T00:38:33.181Z,23.19
2016-12-26T00:39:13.797Z,23.22
2016-12-26T00:39:54.371Z,23.2
2016-12-26T00:40:34.952Z,23.13
2016-12-26T00:41:15.539Z,23.23
2016-12-26T00:41:56.122Z,23.2
2016-12-26T00:42:36.709Z,23.2
2016-12-26T00:43:17.313Z,23.22
2016-12-26T00:43:57.924Z,23.2
2016-12-26T00:44:38.519Z,23.27
2016-12-26T00:45:19.109Z,23.19
2016-12-26T00:45:59.688Z,23.23
2016-12-26T00:46:40.282Z,23.16
2016-12-26T00:47:20.862Z,23.17
2016-12-26T00:48:01.446Z,23.22
2016-12-26T00:48:42.020Z,23.17
2016-12-26T00:49:22.609Z,23.27
2016-12-26T00:50:03.193Z,23.2
2016-12-26T00:50:43.783Z,23.13
2016-12-26T00:51:24.361Z,23.19
2016-12-26T00:52:04.955Z,23.19
2016-12-26T00:52:45.535Z,23.17
2016-12-26T00:53:26.121Z,23.23
2016-12-26T00:54:06.703Z,23.22
2016-12-26T00:54:47.305Z,23.16
2016-12-26T00:55:27.887Z,23.17
2016-12-26T00:56:08.467Z,23.19
2016-12-26T00:56:49.065Z,23.17
2016-12-26T00:57:29.645Z,23.17
2016-12-26T00:58:10.232Z,23.17
2016-12-26T00:58:50.811Z,23.15
2016-12-26T00:59:31.394Z,23.16
2016-12-26T01:00:11.984Z,23.17
2016-12-26T01:00:52.559Z,23.16
2016-12-26T01:01:33.134Z,23.27
2016-12-26T01:02:13.711Z,23.17
2016-12-26T01:02:54.302Z,23.2
2016-12-26T01:03:34.894Z,23.22
2016-12-26T01:04:15.489Z,23.2
2016-12-26T01:04:56.088Z,23.17
2016-12-26T01:05:36.676Z,23.27
2016-12-26T01:06:17.261Z,23.15
2016-12-26T01:06:57.842Z,23.16
2016-12-26T01:07:38.431Z,23.19
2016-12-26T01:08:19.012Z,23.15
2016-12-26T01:08:59.603Z,23.22
2016-12-26T01:09:40.181Z,23.13
2016-12-26T01:10:20.766Z,23.13
2016-12-26T01:11:01.353Z,23.13
2016-12-26T01:11:41.960Z,23.13
2016-12-26T01:12:22.556Z,23.2
2016-12-26T01:13:03.153Z,23.13
2016-12-26T01:13:43.742Z,23.15
2016-12-26T01:14:24.335Z,23.17
2016-12-26T01:15:04.947Z,23.13
2016-12-26T01:15:45.566Z,23.17
2016-12-26T01:16:26.144Z,23.12
2016-12-26T01:17:06.727Z,23.2
2016-12-26T01:17:47.329Z,23.22
2016-12-26T01:18:27.915Z,23.25
2016-12-26T01:19:08.505Z,23.16
2016-12-26T01:19:49.106Z,23.15
2016-12-26T01:20:29.698Z,23.17
2016-12-26T01:21:10.289Z,23.16
2016-12-26T01:21:50.879Z,23.17
2016-12-26T01:22:31.484Z,23.12
2016-12-26T01:23:12.075Z,23.13
2016-12-26T01:23:52.669Z,23.15
2016-12-26T01:24:33.252Z,23.1
2016-12-26T01:25:13.850Z,23.15
2016-12-26T01:25:54.440Z,23.17
2016-12-26T01:26:35.028Z,23.12
2016-12-26T01:27:15.623Z,23.17
2016-12-26T01:27:56.222Z,23.12
2016-12-26T01:28:36.801Z,23.12
2016-12-26T01:29:17.379Z,23.12
2016-12-26T01:29:57.953Z,23.12
2016-12-26T01:30:38.546Z,23.19
2016-12-26T01:31:19.136Z,23.2
2016-12-26T01:31:59.733Z,23.15
2016-12-26T01:32:40.317Z,23.12
2016-12-26T01:33:20.911Z,23.13
2016-12-26T01:34:01.499Z,23.17
2016-12-26T01:34:42.108Z,23.17
2016-12-26T01:35:22.697Z,23.19
2016-12-26T01:36:03.288Z,23.17
2016-12-26T01:36:43.873Z,23.15
2016-12-26T01:37:24.458Z,23.19
2016-12-26T01:38:05.052Z,23.2
2016-12-26T01:38:45.654Z,23.13
2016-12-26T01:39:26.257Z,23.17
2016-12-26T01:40:06.849Z,23.2
2016-12-26T01:40:47.433Z,23.16
2016-12-26T01:41:28.025Z,23.12
2016-12-26T01:42:08.632Z,23.15
2016-12-26T01:42:49.214Z,23.16
2016-12-26T01:43:29.813Z,23.2
2016-12-26T01:44:10.401Z,23.17
2016-12-26T01:44:50.985Z,23.1
2016-12-26T01:45:31.574Z,23.13
2016-12-26T01:46:12.185Z,23.15
2016-12-26T01:46:52.778Z,23.12
2016-12-26T01:47:33.376Z,23.15
2016-12-26T01:48:13.968Z,23.13
2016-12-26T01:48:54.576Z,23.12
2016-12-26T01:49:35.160Z,23.1
2016-12-26T01:50:15.754Z,23.19
2016-12-26T01:50:56.333Z,23.16
2016-12-26T01:51:36.918Z,23.15
2016-12-26T01:52:17.528Z,23.19
2016-12-26T01:52:58.115Z,23.17
2016-12-26T01:53:38.716Z,23.13
2016-12-26T01:54:19.310Z,23.1
2016-12-26T01:54:59.896Z,23.15
2016-12-26T01:55:40.500Z,23.15
2016-12-26T01:56:21.095Z,23.19
2016-12-26T01:57:01.676Z,23.13
2016-12-26T01:57:42.268Z,23.16
2016-12-26T01:58:22.865Z,23.13
2016-12-26T01:59:03.470Z,23.15
2016-12-26T01:59:44.056Z,23.13
2016-12-26T02:00:24.643Z,23.12
2016-12-26T02:01:05.228Z,23.09
2016-12-26T02:01:45.812Z,23.13
2016-12-26T02:02:26.403Z,23.16
2016-12-26T02:03:06.975Z,23.16
2016-12-26T02:03:47.567Z,23.16
2016-12-26T02:04:28.168Z,23.13
2016-12-26T02:05:08.771Z,23.16
2016-12-26T02:05:49.377Z,23.17
2016-12-26T02:06:29.982Z,23.15
2016-12-26T02:07:10.578Z,23.16
2016-12-26T02:07:51.168Z,23.12
2016-12-26T02:08:31.764Z,23.16
2016-12-26T02:09:12.353Z,23.16
2016-12-26T02:09:52.935Z,23.16
2016-12-26T02:10:33.520Z,23.19
2016-12-26T02:11:14.097Z,23.17
2016-12-26T02:11:54.690Z,23.15
2016-12-26T02:12:35.293Z,23.19
2016-12-26T02:13:15.880Z,23.1
2016-12-26T02:13:56.470Z,23.15
2016-12-26T02:14:37.052Z,23.05
2016-12-26T02:15:17.643Z,23.16
2016-12-26T02:15:58.243Z,23.19
2016-12-26T02:16:38.820Z,23.16
2016-12-26T02:17:19.405Z,23.19
2016-12-26T02:17:59.997Z,23.16
2016-12-26T02:18:40.574Z,23.15
2016-12-26T02:19:21.183Z,23.17
2016-12-26T02:20:01.773Z,23.12
2016-12-26T02:20:42.353Z,23.05
2016-12-26T02:21:22.956Z,23.16
2016-12-26T02:22:03.563Z,23.16
2016-12-26T02:22:44.154Z,23.09
2016-12-26T02:23:24.751Z,23.12
2016-12-26T02:24:05.337Z,23.16
2016-12-26T02:24:45.926Z,23.13
2016-12-26T02:25:26.515Z,23.16
2016-12-26T02:26:07.110Z,23.15
2016-12-26T02:26:47.726Z,23.16
2016-12-26T02:27:28.320Z,23.16
2016-12-26T02:28:08.894Z,23.16
2016-12-26T02:28:49.493Z,23.16
2016-12-26T02:29:30.075Z,23.19
2016-12-26T02:30:10.676Z,23.1
2016-12-26T02:30:51.260Z,23.1
2016-12-26T02:31:31.860Z,23.15
2016-12-26T02:32:12.450Z,23.13
2016-12-26T02:32:53.032Z,23.16
2016-12-26T02:33:33.617Z,23.12
2016-12-26T02:34:14.201Z,23.13
2016-12-26T02:34:54.791Z,23.13
2016-12-26T02:35:35.375Z,23.16
2016-12-26T02:36:15.949Z,23.1
2016-12-26T02:36:56.541Z,23.13
2016-12-26T02:37:37.120Z,23.09
2016-12-26T02:38:17.701Z,23.09
2016-12-26T02:38:58.297Z,23.16
2016-12-26T02:39:38.893Z,23.16
2016-12-26T02:40:19.476Z,23.16
2016-12-26T02:41:00.068Z,23.15
2016-12-26T02:41:40.653Z,23.1
2016-12-26T02:42:21.234Z,23.05
2016-12-26T02:43:01.816Z,23.16
2016-12-26T02:43:42.397Z,23.16
2016-12-26T02:44:22.977Z,23.15
2016-12-26T02:45:03.569Z,23.1
2016-12-26T02:45:44.156Z,23.1
2016-12-26T02:46:24.753Z,23.12
2016-12-26T02:47:05.344Z,23.19
2016-12-26T02:47:45.924Z,23.12
2016-12-26T02:48:26.518Z,23.12
2016-12-26T02:49:07.128Z,23.13
2016-12-26T02:49:47.723Z,23.13
2016-12-26T02:50:28.295Z,23.07
2016-12-26T02:51:08.873Z,23.13
2016-12-26T02:51:49.455Z,23.12
2016-12-26T02:52:30.038Z,23.1
2016-12-26T02:53:10.620Z,23.12
2016-12-26T02:53:51.202Z,23.13
2016-12-26T02:54:31.769Z,23.16
2016-12-26T02:55:12.355Z,23.09
2016-12-26T02:55:52.931Z,23.12
2016-12-26T02:56:33.523Z,23.1
2016-12-26T02:57:14.112Z,23.1
2016-12-26T02:57:54.710Z,23.17
2016-12-26T02:58:35.291Z,23.09
2016-12-26T02:59:15.880Z,23.09
2016-12-26T02:59:56.455Z,23.13
2016-12-26T03:00:37.046Z,23.09
2016-12-26T03:01:17.630Z,23.15
2016-12-26T03:01:58.204Z,23.1
2016-12-26T03:02:38.787Z,23.09
2016-12-26T03:03:19.391Z,23.09
2016-12-26T03:03:59.985Z,23.07
2016-12-26T03:04:40.570Z,23.1
2016-12-26T03:05:21.189Z,23.16
2016-12-26T03:06:01.762Z,23.13
2016-12-26T03:06:42.356Z,23.1
2016-12-26T03:07:22.953Z,23.12
2016-12-26T03:08:03.544Z,23.07
2016-12-26T03:08:44.128Z,23.13
2016-12-26T03:09:24.715Z,23.09
2016-12-26T03:10:05.293Z,23.12
2016-12-26T03:10:45.902Z,23.09
2016-12-26T03:11:26.497Z,23.12
2016-12-26T03:12:07.076Z,23.15
2016-12-26T03:12:47.656Z,23.13
2016-12-26T03:13:28.255Z,23.09
2016-12-26T03:14:08.848Z,23.15
2016-12-26T03:14:49.442Z,23.1
2016-12-26T03:15:30.018Z,23.07
2016-12-26T03:16:10.601Z,23.12
2016-12-26T03:16:51.182Z,23.1
2016-12-26T03:17:31.768Z,23.07
2016-12-26T03:18:12.367Z,23.12
2016-12-26T03:18:52.972Z,23.12
2016-12-26T03:19:33.554Z,23.16
2016-12-26T03:20:14.141Z,23.1
2016-12-26T03:20:54.725Z,23.12
2016-12-26T03:21:35.326Z,23.12
2016-12-26T03:22:15.924Z,23.16
2016-12-26T03:22:56.514Z,23.13
2016-12-26T03:23:37.103Z,23.12
2016-12-26T03:24:17.685Z,23.12
2016-12-26T03:24:58.273Z,23.09
2016-12-26T03:25:38.863Z,23.09
2016-12-26T03:26:19.445Z,23.1
2016-12-26T03:27:00.038Z,23.15
2016-12-26T03:27:40.616Z,23.12
2016-12-26T03:28:21.207Z,23.04
2016-12-26T03:29:01.789Z,23.04
2016-12-26T03:29:42.365Z,23.13
2016-12-26T03:30:22.940Z,23.09
2016-12-26T03:31:03.527Z,23.09
2016-12-26T03:31:44.110Z,23.15
2016-12-26T03:32:24.705Z,23.1
2016-12-26T03:33:05.278Z,23.12
2016-12-26T03:33:45.865Z,23.12
2016-12-26T03:34:26.460Z,23.09
2016-12-26T03:35:07.052Z,23.05
2016-12-26T03:35:47.630Z,23.15
2016-12-26T03:36:28.218Z,23.04
2016-12-26T03:37:08.814Z,23.15
2016-12-26T03:37:49.408Z,23.09
2016-12-26T03:38:29.995Z,23.13
2016-12-26T03:39:10.589Z,23.13
2016-12-26T03:39:51.195Z,23.04
2016-12-26T03:40:31.778Z,23.1
2016-12-26T03:41:12.353Z,23.07
2016-12-26T03:41:52.931Z,23.07
2016-12-26T03:42:33.524Z,23.09
2016-12-26T03:43:14.108Z,23.07
2016-12-26T03:43:54.695Z,23.09
2016-12-26T03:44:35.274Z,23.09
2016-12-26T03:45:15.862Z,23.1
2016-12-26T03:45:56.455Z,23.01
2016-12-26T03:46:37.052Z,23.07
2016-12-26T03:47:17.635Z,23.01
2016-12-26T03:47:58.226Z,23.04
2016-12-26T03:48:38.807Z,23.07
2016-12-26T03:49:19.389Z,23.07
2016-12-26T03:49:59.972Z,23.07
2016-12-26T03:50:40.562Z,22.97
2016-12-26T03:51:21.166Z,23.04
2016-12-26T03:52:01.760Z,23.07
2016-12-26T03:52:42.373Z,23.04
2016-12-26T03:53:22.974Z,23.09
2016-12-26T03:54:03.556Z,23
2016-12-26T03:54:44.152Z,22.97
2016-12-26T03:55:24.740Z,23.04
2016-12-26T03:56:05.335Z,23.05
2016-12-26T03:56:45.924Z,23.13
2016-12-26T03:57:26.514Z,23.04
2016-12-26T03:58:07.104Z,23.12
2016-12-26T03:58:47.696Z,23.1
2016-12-26T03:59:28.284Z,23.12
2016-12-26T04:00:08.868Z,23.09
2016-12-26T04:00:49.449Z,23.04
2016-12-26T04:01:30.031Z,22.98
2016-12-26T04:02:10.627Z,23.12
2016-12-26T04:02:52.233Z,23.07
2016-12-26T04:03:32.817Z,23
2016-12-26T04:04:13.395Z,23
2016-12-26T04:04:53.976Z,23.04
2016-12-26T04:05:34.561Z,22.94
2016-12-26T04:06:15.140Z,23.09
2016-12-26T04:06:55.718Z,23.04
2016-12-26T04:07:36.310Z,23.04
2016-12-26T04:08:16.897Z,22.97
2016-12-26T04:08:57.471Z,22.98
2016-12-26T04:09:38.045Z,23
2016-12-26T04:10:18.635Z,23
2016-12-26T04:10:59.229Z,23
2016-12-26T04:11:39.801Z,23
2016-12-26T04:12:20.382Z,22.95
2016-12-26T04:13:00.962Z,23.04
2016-12-26T04:13:41.547Z,23
2016-12-26T04:14:22.125Z,23.1
2016-12-26T04:15:02.710Z,22.95
2016-12-26T04:15:43.302Z,23.02
2016-12-26T04:16:23.896Z,22.95
2016-12-26T04:17:04.499Z,23.1
2016-12-26T04:17:45.111Z,22.97
2016-12-26T04:18:25.703Z,23.01
2016-12-26T04:19:06.295Z,23.07
2016-12-26T04:19:46.870Z,23
2016-12-26T04:20:27.459Z,23.04
2016-12-26T04:21:08.054Z,23
2016-12-26T04:21:48.650Z,23
2016-12-26T04:22:29.273Z,22.98
2016-12-26T04:23:09.870Z,23.1
2016-12-26T04:23:50.456Z,22.94
2016-12-26T04:24:31.037Z,23.01
2016-12-26T04:25:11.621Z,23.02
2016-12-26T04:25:52.197Z,23.04
2016-12-26T04:26:32.781Z,22.97
2016-12-26T04:27:13.360Z,22.97
2016-12-26T04:27:53.973Z,23.01
2016-12-26T04:28:34.562Z,23
2016-12-26T04:29:15.145Z,22.97
2016-12-26T04:29:55.743Z,22.98
2016-12-26T04:30:36.333Z,23.09
2016-12-26T04:31:16.930Z,23.04
2016-12-26T04:31:57.538Z,23.01
2016-12-26T04:32:38.132Z,23.1
2016-12-26T04:33:18.724Z,22.94
2016-12-26T04:33:59.334Z,22.97
2016-12-26T04:34:39.929Z,23.01
2016-12-26T04:35:20.516Z,23.04
2016-12-26T04:36:01.104Z,23.04
2016-12-26T04:36:41.700Z,22.94
2016-12-26T04:37:22.286Z,22.98
2016-12-26T04:38:02.866Z,22.94
2016-12-26T04:38:43.448Z,22.94
2016-12-26T04:39:24.045Z,23.02
2016-12-26T04:40:04.638Z,22.95
2016-12-26T04:40:45.227Z,22.94
2016-12-26T04:41:25.811Z,22.95
2016-12-26T04:42:06.401Z,22.95
2016-12-26T04:42:46.981Z,23
2016-12-26T04:43:27.559Z,23.01
2016-12-26T04:44:08.143Z,23.02
2016-12-26T04:44:48.722Z,22.95
2016-12-26T04:45:29.301Z,22.95
2016-12-26T04:46:09.882Z,23.01
2016-12-26T04:46:50.470Z,23
2016-12-26T04:47:31.069Z,22.94
2016-12-26T04:48:11.672Z,23
2016-12-26T04:48:52.269Z,23
2016-12-26T04:49:32.857Z,22.94
2016-12-26T04:50:13.445Z,22.97
2016-12-26T04:50:54.046Z,23.02
2016-12-26T04:51:34.628Z,23
2016-12-26T04:52:15.215Z,23.04
2016-12-26T04:52:55.805Z,22.98
2016-12-26T04:53:36.387Z,23
2016-12-26T04:54:16.982Z,23
2016-12-26T04:54:57.589Z,22.97
2016-12-26T04:55:38.200Z,23.04
2016-12-26T04:56:18.787Z,22.94
2016-12-26T04:56:59.383Z,23
2016-12-26T04:57:39.963Z,22.98
2016-12-26T04:58:20.555Z,23.01
2016-12-26T04:59:01.143Z,23
2016-12-26T04:59:41.723Z,23.05
2016-12-26T05:00:22.307Z,23.02
2016-12-26T05:01:02.921Z,23.02
2016-12-26T05:01:43.511Z,23.01
2016-12-26T05:02:24.121Z,22.94
2016-12-26T05:03:04.715Z,23
2016-12-26T05:03:45.317Z,23.01
2016-12-26T05:04:25.905Z,22.97
2016-12-26T05:05:06.505Z,22.97
2016-12-26T05:05:47.089Z,23
2016-12-26T05:06:27.674Z,22.98
2016-12-26T05:07:08.268Z,22.94
2016-12-26T05:07:48.850Z,23
2016-12-26T05:08:29.425Z,22.98
2016-12-26T05:09:10.027Z,22.98
2016-12-26T05:09:50.618Z,23.01
2016-12-26T05:10:31.210Z,23
2016-12-26T05:11:11.804Z,22.97
2016-12-26T05:11:52.382Z,23
2016-12-26T05:12:32.980Z,22.98
2016-12-26T05:13:13.571Z,23.01
2016-12-26T05:13:54.150Z,22.97
2016-12-26T05:14:34.732Z,22.97
2016-12-26T05:15:15.317Z,23
2016-12-26T05:15:55.899Z,23.02
2016-12-26T05:16:36.480Z,22.95
2016-12-26T05:17:17.055Z,22.98
2016-12-26T05:17:57.648Z,22.92
2016-12-26T05:18:38.248Z,22.98
2016-12-26T05:19:18.840Z,22.97
2016-12-26T05:19:59.429Z,22.97
2016-12-26T05:20:40.013Z,23
2016-12-26T05:21:20.600Z,23
2016-12-26T05:22:01.215Z,23
2016-12-26T05:22:41.823Z,22.92
2016-12-26T05:23:22.417Z,23
2016-12-26T05:24:02.999Z,22.95
2016-12-26T05:24:43.589Z,22.98
2016-12-26T05:25:24.174Z,23
2016-12-26T05:26:04.754Z,23
2016-12-26T05:26:45.338Z,22.98
2016-12-26T05:27:25.927Z,22.98
2016-12-26T05:28:06.540Z,22.94
2016-12-26T05:28:47.137Z,22.92
2016-12-26T05:29:27.710Z,22.94
2016-12-26T05:30:08.298Z,22.98
2016-12-26T05:30:48.892Z,22.94
2016-12-26T05:31:29.480Z,22.94
2016-12-26T05:32:10.065Z,23.04
2016-12-26T05:32:50.650Z,22.92
2016-12-26T05:33:31.243Z,22.92
2016-12-26T05:34:11.824Z,22.94
2016-12-26T05:34:52.400Z,22.92
2016-12-26T05:35:32.988Z,22.98
2016-12-26T05:36:13.567Z,22.94
2016-12-26T05:36:54.163Z,23
2016-12-26T05:37:34.756Z,22.97
2016-12-26T05:38:15.352Z,23.01
2016-12-26T05:38:55.933Z,22.91
2016-12-26T05:39:36.518Z,23.01
2016-12-26T05:40:17.108Z,22.92
2016-12-26T05:40:57.689Z,22.95
2016-12-26T05:41:38.269Z,22.91
2016-12-26T05:42:18.856Z,22.97
2016-12-26T05:42:59.451Z,22.98
2016-12-26T05:43:40.038Z,22.92
2016-12-26T05:44:20.620Z,22.92
2016-12-26T05:45:01.211Z,22.92
2016-12-26T05:45:41.806Z,22.92
2016-12-26T05:46:22.381Z,22.94
2016-12-26T05:47:02.974Z,22.94
2016-12-26T05:47:43.581Z,22.91
2016-12-26T05:48:24.168Z,22.88
2016-12-26T05:49:04.749Z,22.95
2016-12-26T05:49:45.340Z,22.94
2016-12-26T05:50:25.933Z,22.97
2016-12-26T05:51:06.523Z,23
2016-12-26T05:51:47.125Z,22.91
2016-12-26T05:52:27.713Z,22.88
2016-12-26T05:53:08.317Z,22.94
2016-12-26T05:53:48.918Z,22.94
2016-12-26T05:54:29.473Z,22.91
2016-12-26T05:55:10.057Z,22.91
2016-12-26T05:55:50.655Z,22.92
2016-12-26T05:56:31.253Z,22.9
2016-12-26T05:57:11.843Z,22.92
2016-12-26T05:57:52.445Z,22.85
2016-12-26T05:58:33.038Z,23
2016-12-26T05:59:13.612Z,22.92
2016-12-26T05:59:54.200Z,22.94
2016-12-26T06:00:34.798Z,22.85
2016-12-26T06:01:15.381Z,22.85
2016-12-26T06:01:55.978Z,22.94
2016-12-26T06:02:36.569Z,22.85
2016-12-26T06:03:17.163Z,22.92
2016-12-26T06:03:57.744Z,22.92
2016-12-26T06:04:38.319Z,22.98
2016-12-26T06:05:18.901Z,22.97
2016-12-26T06:06:00.343Z,22.83
2016-12-26T06:06:40.926Z,22.92
2016-12-26T06:07:21.512Z,22.82
2016-12-26T06:08:02.095Z,22.88
2016-12-26T06:08:42.681Z,22.91
2016-12-26T06:09:23.255Z,22.88
2016-12-26T06:10:03.857Z,22.92
2016-12-26T06:10:44.451Z,22.88
2016-12-26T06:11:25.023Z,22.9
2016-12-26T06:12:05.605Z,22.88
2016-12-26T06:12:46.198Z,22.86
2016-12-26T06:13:26.780Z,22.95
2016-12-26T06:14:07.361Z,22.85
2016-12-26T06:14:47.945Z,22.9
2016-12-26T06:15:28.520Z,22.83
2016-12-26T06:16:09.118Z,22.88
2016-12-26T06:16:49.715Z,22.92
2016-12-26T06:17:30.287Z,22.92
2016-12-26T06:18:10.878Z,22.88
2016-12-26T06:18:51.471Z,22.86
2016-12-26T06:19:32.076Z,22.82
2016-12-26T06:20:12.670Z,22.86
2016-12-26T06:20:53.251Z,22.85
2016-12-26T06:21:33.827Z,22.82
2016-12-26T06:22:14.415Z,22.91
2016-12-26T06:22:54.995Z,22.88
2016-12-26T06:23:35.585Z,22.88
2016-12-26T06:24:16.179Z,22.85
2016-12-26T06:24:56.770Z,22.82
2016-12-26T06:25:37.360Z,22.88
2016-12-26T06:26:17.943Z,22.94
2016-12-26T06:26:58.536Z,22.88
2016-12-26T06:27:39.137Z,22.9
2016-12-26T06:28:19.749Z,22.91
2016-12-26T06:29:00.335Z,22.94
2016-12-26T06:29:40.914Z,22.95
2016-12-26T06:30:21.501Z,22.92
2016-12-26T06:31:02.089Z,22.83
2016-12-26T06:31:42.669Z,22.88
2016-12-26T06:32:23.247Z,22.86
2016-12-26T06:33:03.825Z,22.86
2016-12-26T06:33:44.415Z,22.85
2016-12-26T06:34:24.985Z,22.91
2016-12-26T06:35:05.560Z,22.85
2016-12-26T06:35:46.142Z,22.88
2016-12-26T06:36:26.725Z,22.85
2016-12-26T06:37:07.303Z,22.85
2016-12-26T06:37:47.886Z,22.82
2016-12-26T06:38:28.468Z,22.85
2016-12-26T06:39:09.051Z,22.91
2016-12-26T06:39:49.633Z,22.92
2016-12-26T06:40:30.219Z,22.88
2016-12-26T06:41:10.814Z,22.82
2016-12-26T06:41:51.403Z,22.88
2016-12-26T06:42:32.001Z,22.85
2016-12-26T06:43:12.589Z,22.92
2016-12-26T06:43:53.187Z,22.91
2016-12-26T06:44:33.767Z,22.85
2016-12-26T06:45:14.346Z,22.83
2016-12-26T06:45:54.936Z,22.85
2016-12-26T06:46:35.531Z,22.85
2016-12-26T06:47:16.154Z,22.85
2016-12-26T06:47:56.752Z,22.88
2016-12-26T06:48:37.333Z,22.85
2016-12-26T06:49:17.923Z,22.9
2016-12-26T06:49:58.506Z,22.88
2016-12-26T06:50:39.094Z,22.9
2016-12-26T06:51:19.705Z,22.83
2016-12-26T06:52:00.297Z,22.85
2016-12-26T06:52:40.890Z,22.85
2016-12-26T06:53:21.480Z,22.88
2016-12-26T06:54:02.089Z,22.92
2016-12-26T06:54:42.665Z,22.91
2016-12-26T06:55:23.256Z,22.85
2016-12-26T06:56:03.849Z,22.85
2016-12-26T06:56:44.460Z,22.85
2016-12-26T06:57:25.048Z,22.82
2016-12-26T06:58:05.632Z,22.83
2016-12-26T06:58:46.222Z,22.88
2016-12-26T06:59:26.803Z,22.9
2016-12-26T07:00:07.389Z,22.86
2016-12-26T07:00:47.980Z,22.86
2016-12-26T07:01:28.567Z,22.92
2016-12-26T07:02:09.155Z,22.82
2016-12-26T07:02:49.758Z,22.88
2016-12-26T07:03:30.335Z,22.88
2016-12-26T07:04:10.941Z,22.82
2016-12-26T07:04:51.534Z,22.82
2016-12-26T07:05:32.115Z,22.85
2016-12-26T07:06:12.721Z,22.86
2016-12-26T07:06:53.302Z,22.88
2016-12-26T07:07:33.900Z,22.88
2016-12-26T07:08:14.488Z,22.86
2016-12-26T07:08:55.064Z,22.91
2016-12-26T07:09:35.656Z,22.88
2016-12-26T07:10:16.255Z,22.86
2016-12-26T07:10:56.855Z,22.83
2016-12-26T07:11:37.438Z,22.88
2016-12-26T07:12:18.079Z,22.88
2016-12-26T07:12:58.651Z,22.83
2016-12-26T07:13:39.251Z,22.9
2016-12-26T07:14:19.880Z,22.91
2016-12-26T07:15:00.470Z,22.9
2016-12-26T07:15:41.060Z,22.88
2016-12-26T07:16:21.655Z,22.9
2016-12-26T07:17:02.259Z,22.83
2016-12-26T07:17:42.837Z,22.83
2016-12-26T07:18:23.429Z,22.85
2016-12-26T07:19:04.013Z,22.83
2016-12-26T07:19:44.606Z,22.83
2016-12-26T07:20:25.180Z,22.83
2016-12-26T07:21:05.771Z,22.82
2016-12-26T07:21:46.356Z,22.85
2016-12-26T07:22:26.934Z,22.85
2016-12-26T07:23:07.517Z,22.83
2016-12-26T07:23:48.117Z,22.86
2016-12-26T07:24:28.707Z,22.88
2016-12-26T07:25:09.285Z,22.85
2016-12-26T07:25:49.865Z,22.88
2016-12-26T07:26:30.441Z,22.85
2016-12-26T07:27:11.030Z,22.86
2016-12-26T07:27:51.628Z,22.85
2016-12-26T07:28:32.214Z,22.85
2016-12-26T07:29:12.796Z,22.88
2016-12-26T07:29:53.382Z,22.85
2016-12-26T07:30:33.965Z,22.83
2016-12-26T07:31:14.554Z,22.85
2016-12-26T07:31:55.147Z,22.92
2016-12-26T07:32:35.739Z,22.85
2016-12-26T07:33:16.327Z,22.86
2016-12-26T07:33:56.924Z,22.86
2016-12-26T07:34:37.510Z,22.85
2016-12-26T07:35:18.088Z,22.91
2016-12-26T07:35:58.680Z,22.85
2016-12-26T07:36:39.267Z,22.9
2016-12-26T07:37:19.844Z,22.9
2016-12-26T07:38:00.417Z,22.9
2016-12-26T07:38:41.006Z,22.85
2016-12-26T07:39:21.580Z,22.86
2016-12-26T07:40:02.164Z,22.85
2016-12-26T07:40:42.756Z,22.86
2016-12-26T07:41:23.342Z,22.85
2016-12-26T07:42:03.961Z,22.86
2016-12-26T07:42:44.554Z,22.88
2016-12-26T07:43:25.141Z,22.88
2016-12-26T07:44:05.726Z,22.9
2016-12-26T07:44:46.319Z,22.88
2016-12-26T07:45:26.919Z,22.91
2016-12-26T07:46:07.502Z,22.85
2016-12-26T07:46:48.093Z,22.9
2016-12-26T07:47:28.683Z,22.88
2016-12-26T07:48:09.273Z,22.82
2016-12-26T07:48:49.875Z,22.86
2016-12-26T07:49:30.460Z,22.88
2016-12-26T07:50:11.039Z,22.88
2016-12-26T07:50:51.630Z,22.83
2016-12-26T07:51:32.207Z,22.86
2016-12-26T07:52:12.792Z,22.88
2016-12-26T07:52:53.378Z,22.88
2016-12-26T07:53:33.953Z,22.92
2016-12-26T07:54:14.534Z,22.88
2016-12-26T07:54:55.125Z,22.85
2016-12-26T07:55:35.697Z,22.91
2016-12-26T07:56:16.293Z,22.88
2016-12-26T07:56:56.879Z,22.85
2016-12-26T07:57:37.482Z,22.91
2016-12-26T07:58:18.065Z,22.92
2016-12-26T07:58:58.664Z,22.86
2016-12-26T07:59:39.256Z,22.9
2016-12-26T08:00:19.855Z,22.92
2016-12-26T08:01:00.458Z,22.86
2016-12-26T08:01:41.024Z,22.9
2016-12-26T08:02:21.604Z,22.85
2016-12-26T08:03:02.184Z,22.88
2016-12-26T08:03:42.755Z,22.88
2016-12-26T08:04:23.367Z,22.88
2016-12-26T08:05:03.945Z,22.86
2016-12-26T08:05:44.540Z,22.94
2016-12-26T08:06:25.117Z,22.92
2016-12-26T08:07:05.692Z,22.95
2016-12-26T08:07:46.279Z,22.94
2016-12-26T08:08:26.869Z,22.8
2016-12-26T08:09:07.465Z,22.9
2016-12-26T08:09:48.078Z,22.91
2016-12-26T08:10:28.666Z,22.86
2016-12-26T08:11:09.247Z,22.8
2016-12-26T08:11:49.842Z,22.85
2016-12-26T08:12:30.409Z,22.82
2016-12-26T08:13:10.999Z,22.88
2016-12-26T08:13:51.584Z,22.88
2016-12-26T08:14:32.177Z,22.82
2016-12-26T08:15:12.764Z,22.88
2016-12-26T08:15:53.349Z,22.86
2016-12-26T08:16:33.930Z,22.91
2016-12-26T08:17:14.508Z,22.88
2016-12-26T08:17:55.122Z,22.92
2016-12-26T08:18:35.695Z,22.83
2016-12-26T08:19:16.287Z,22.95
2016-12-26T08:19:56.886Z,22.88
2016-12-26T08:20:37.482Z,22.88
2016-12-26T08:21:18.076Z,22.86
2016-12-26T08:21:58.654Z,22.83
2016-12-26T08:22:39.240Z,22.94
2016-12-26T08:23:19.818Z,22.91
2016-12-26T08:24:00.398Z,22.88
2016-12-26T08:24:40.984Z,22.86
2016-12-26T08:25:21.574Z,22.92
2016-12-26T08:26:02.149Z,22.86
2016-12-26T08:26:42.738Z,22.91
2016-12-26T08:27:23.338Z,22.86
2016-12-26T08:28:03.928Z,22.83
2016-12-26T08:28:44.526Z,22.86
2016-12-26T08:29:25.116Z,22.91
2016-12-26T08:30:05.707Z,22.88
2016-12-26T08:30:46.295Z,22.88
2016-12-26T08:31:26.892Z,22.92
2016-12-26T08:32:07.498Z,22.91
2016-12-26T08:32:48.091Z,22.98
2016-12-26T08:33:28.687Z,23.05
2016-12-26T08:34:09.282Z,22.97
2016-12-26T08:34:49.854Z,22.97
2016-12-26T08:35:30.428Z,23.01
2016-12-26T08:36:11.016Z,23
2016-12-26T08:36:51.599Z,23.04
2016-12-26T08:37:32.186Z,23.1
2016-12-26T08:38:12.785Z,23.15
2016-12-26T08:38:53.372Z,23.09
2016-12-26T08:39:33.961Z,23.12
2016-12-26T08:40:14.558Z,23.19
2016-12-26T08:40:55.143Z,23.13
2016-12-26T08:41:35.735Z,23.2
2016-12-26T08:42:16.325Z,23.15
2016-12-26T08:42:56.925Z,23.19
2016-12-26T08:43:37.517Z,23.1
2016-12-26T08:44:18.151Z,23.13
2016-12-26T08:44:58.732Z,23.2
2016-12-26T08:45:39.318Z,23.2
2016-12-26T08:46:19.898Z,23.32
2016-12-26T08:47:00.470Z,23.2